Time;durP1;ratioP1;P1;durP2;ratioP2;P2;SDS_P1;SDS_P2;PMS_P1;PMS_P2;Temp;Humidity;BMP_temperature;BMP_pressure;BME280_temperature;BME280_humidity;BME280_pressure;Samples;Min_cycle;Max_cycle;Signal;HPM_P1;HPM_P2
2022/03/24 00:00:56;;;;;;;9.80;7.50;;;9.40;59.70;;;;;;5032793;28;20032;-78
2022/03/24 00:03:22;;;;;;;14.00;7.90;;;9.40;59.80;;;;;;5032826;28;20025;-78
2022/03/24 00:05:48;;;;;;;13.93;8.02;;;9.40;59.60;;;;;;5032457;28;20032;-78
2022/03/24 00:08:14;;;;;;;13.95;7.72;;;9.40;59.80;;;;;;5032728;28;20021;-79
2022/03/24 00:10:39;;;;;;;13.63;7.75;;;9.40;59.90;;;;;;5032331;28;20045;-79
2022/03/24 00:13:05;;;;;;;16.00;8.18;;;9.30;59.90;;;;;;5032393;28;20060;-78
2022/03/24 00:15:31;;;;;;;13.88;7.70;;;9.30;60.20;;;;;;5032195;28;20055;-78
2022/03/24 00:18:01;;;;;;;11.05;7.85;;;9.20;60.10;;;;;;5031319;28;20041;-78
2022/03/24 00:20:28;;;;;;;12.52;7.88;;;9.20;59.90;;;;;;5030722;28;20491;-78
2022/03/24 00:22:57;;;;;;;12.98;8.27;;;9.20;59.70;;;;;;5032195;28;20496;-78
2022/03/24 00:25:24;;;;;;;13.38;7.85;;;9.10;59.70;;;;;;5030749;28;20116;-77
2022/03/24 00:27:50;;;;;;;10.70;7.35;;;9.10;59.50;;;;;;5032215;28;20075;-77
2022/03/24 00:30:16;;;;;;;13.05;8.00;;;9.20;59.60;;;;;;5027609;28;20033;-78
2022/03/24 00:32:45;;;;;;;14.80;8.02;;;9.10;59.60;;;;;;5032204;28;20029;-78
2022/03/24 00:35:11;;;;;;;12.15;8.23;;;9.10;59.50;;;;;;5031737;28;20623;-79
2022/03/24 00:37:36;;;;;;;12.20;8.02;;;9.00;59.60;;;;;;5031976;28;20542;-78
2022/03/24 00:40:07;;;;;;;16.35;7.95;;;9.00;59.60;;;;;;5031613;28;20037;-78
2022/03/24 00:42:36;;;;;;;12.85;7.40;;;8.90;59.70;;;;;;5030864;28;20032;-77
2022/03/24 00:45:09;;;;;;;14.10;7.55;;;8.90;60.10;;;;;;5031832;28;20032;-78
2022/03/24 00:47:36;;;;;;;13.18;7.88;;;9.00;60.50;;;;;;5031655;28;20417;-78
2022/03/24 00:50:05;;;;;;;20.02;8.02;;;8.90;61.60;;;;;;5031665;28;20071;-78
2022/03/24 00:52:31;;;;;;;12.20;8.23;;;8.90;61.80;;;;;;5031942;28;20514;-78
2022/03/24 00:54:57;;;;;;;11.73;7.88;;;8.80;62.10;;;;;;5031152;28;20389;-78
2022/03/24 00:57:29;;;;;;;20.83;9.15;;;8.70;62.40;;;;;;5031521;28;20017;-78
2022/03/24 00:59:57;;;;;;;12.27;7.63;;;8.70;62.90;;;;;;5030649;28;20025;-78
2022/03/24 01:02:28;;;;;;;13.70;8.02;;;8.70;62.50;;;;;;5030620;28;20116;-77
2022/03/24 01:04:57;;;;;;;13.00;7.57;;;8.60;62.10;;;;;;5030834;28;20055;-77
2022/03/24 01:07:35;;;;;;;15.10;8.40;;;8.60;62.30;;;;;;5031483;28;20074;-77
2022/03/24 01:10:06;;;;;;;12.85;7.90;;;8.50;62.50;;;;;;5029443;28;20095;-77
2022/03/24 01:12:32;;;;;;;18.90;8.40;;;8.40;63.10;;;;;;5031175;28;20040;-77
2022/03/24 01:14:59;;;;;;;14.02;7.35;;;8.30;63.90;;;;;;5030149;28;20072;-78
2022/03/24 01:17:31;;;;;;;10.90;7.70;;;8.20;65.20;;;;;;5031151;28;20029;-78
2022/03/24 01:19:57;;;;;;;12.07;8.23;;;8.10;65.50;;;;;;5030909;28;20056;-78
2022/03/24 01:22:51;;;;;;;;;;;;;;;;;;;;;
2022/03/24 01:25:20;;;;;;;13.00;7.97;;;8.00;66.10;;;;;;5027072;28;20051;-78
2022/03/24 01:27:46;;;;;;;16.65;8.65;;;7.90;65.90;;;;;;5030929;28;20064;-78
2022/03/24 01:30:12;;;;;;;12.55;8.00;;;7.90;65.40;;;;;;5029676;28;20533;-78
2022/03/24 01:32:41;;;;;;;11.95;7.88;;;7.90;64.90;;;;;;5030887;28;20096;-78
2022/03/24 01:35:24;;;;;;;9.20;7.10;;;7.90;65.10;;;;;;5030808;28;20435;-78
2022/03/24 01:37:50;;;;;;;;;;;8.00;64.10;;;;;;5029871;28;20037;-78
2022/03/24 01:40:16;;;;;;;10.65;7.47;;;8.10;62.80;;;;;;5025036;28;19916;-78
2022/03/24 01:42:43;;;;;;;11.30;7.40;;;8.20;62.20;;;;;;5029753;28;20286;-78
2022/03/24 01:45:16;;;;;;;11.57;7.40;;;8.30;61.50;;;;;;5030916;28;20018;-78
2022/03/24 01:47:45;;;;;;;10.65;7.57;;;8.40;60.70;;;;;;5030774;28;20018;-78
2022/03/24 01:50:11;;;;;;;12.35;8.05;;;8.60;59.80;;;;;;5030798;28;20455;-78
2022/03/24 01:52:40;;;;;;;19.05;8.80;;;8.80;59.60;;;;;;5030728;28;20037;-78
2022/03/24 01:55:08;;;;;;;20.80;8.10;;;8.80;59.60;;;;;;5030172;28;20080;-78
2022/03/24 01:57:35;;;;;;;16.10;9.57;;;8.80;59.40;;;;;;5030503;28;20025;-78
2022/03/24 02:00:03;;;;;;;15.38;8.70;;;8.80;59.60;;;;;;5028611;28;20017;-78
2022/03/24 02:02:32;;;;;;;19.27;8.43;;;8.90;60.90;;;;;;5029501;28;20505;-78
2022/03/24 02:05:00;;;;;;;17.42;8.20;;;9.10;59.90;;;;;;5030361;28;20030;-78
2022/03/24 02:10:40;;;;;;;12.60;8.73;;;9.10;64.50;;;;;;5029269;28;20041;-78
2022/03/24 02:13:09;;;;;;;12.93;8.32;;;8.90;61.30;;;;;;5022955;28;20028;-78
2022/03/24 02:15:36;;;;;;;14.20;8.75;;;8.80;61.10;;;;;;5030487;28;20038;-78
2022/03/24 02:18:02;;;;;;;12.95;8.63;;;8.60;61.70;;;;;;5030287;28;20025;-78
2022/03/24 02:20:33;;;;;;;20.67;8.93;;;8.50;61.40;;;;;;5030455;28;20487;-78
2022/03/24 02:23:01;;;;;;;13.77;8.55;;;8.50;61.80;;;;;;5030657;28;20100;-78
2022/03/24 02:25:46;;;;;;;12.82;8.10;;;8.40;63.20;;;;;;5030353;28;20075;-78
2022/03/24 02:28:14;;;;;;;16.55;7.72;;;8.30;64.00;;;;;;5022599;28;20443;-78
2022/03/24 02:30:40;;;;;;;24.35;8.32;;;8.20;65.60;;;;;;5029092;28;20633;-78
2022/03/24 02:33:12;;;;;;;16.15;8.25;;;8.00;66.80;;;;;;5033082;28;20029;-78
2022/03/24 02:35:44;;;;;;;14.40;8.13;;;7.90;69.60;;;;;;5033575;28;20058;-77
2022/03/24 02:38:11;;;;;;;12.30;8.52;;;7.90;73.50;;;;;;5034335;28;20075;-78
2022/03/24 02:40:39;;;;;;;11.88;8.13;;;8.00;74.60;;;;;;5034195;28;20068;-78
2022/03/24 02:43:17;;;;;;;18.70;8.45;;;7.90;77.40;;;;;;5031723;28;20125;-78
2022/03/24 02:45:58;;;;;;;13.43;7.97;;;7.70;73.90;;;;;;5034078;28;20025;-78
2022/03/24 02:51:31;;;;;;;15.75;7.75;;;7.70;70.30;;;;;;5034260;28;20099;-78
2022/03/24 02:53:57;;;;;;;14.65;8.20;;;7.50;70.80;;;;;;5033570;28;20389;-78
2022/03/24 02:57:03;;;;;;;13.35;7.57;;;7.40;70.50;;;;;;5033528;28;20622;-77
2022/03/24 03:00:01;;;;;;;16.50;8.07;;;7.30;69.40;;;;;;5027021;28;20329;-77
2022/03/24 03:02:32;;;;;;;15.48;8.13;;;7.30;69.40;;;;;;5028521;28;20029;-78
2022/03/24 03:05:16;;;;;;;17.00;7.70;;;7.40;69.50;;;;;;5033610;28;20021;-78
2022/03/24 03:07:58;;;;;;;;;;;;;;;;;;;;;
2022/03/24 03:10:48;;;;;;;;;;;;;;;;;;;;;
2022/03/24 03:13:20;;;;;;;16.85;7.75;;;7.30;69.00;;;;;;5027165;28;20025;-78
2022/03/24 03:15:52;;;;;;;14.13;7.78;;;7.20;69.30;;;;;;5033459;28;20037;-78
2022/03/24 03:19:04;;;;;;;15.55;7.47;;;7.20;69.00;;;;;;5033140;28;20416;-78
2022/03/24 03:21:36;;;;;;;12.80;7.75;;;7.20;69.70;;;;;;5027306;28;20123;-78
2022/03/24 03:24:08;;;;;;;20.13;8.07;;;7.20;69.50;;;;;;5025640;28;20116;-79
2022/03/24 03:26:40;;;;;;;;;;;7.30;69.50;;;;;;5031656;28;20041;-78
2022/03/24 03:29:11;;;;;;;12.15;7.75;;;7.40;69.10;;;;;;5025885;28;19905;-78
2022/03/24 03:34:24;;;;;;;15.23;8.02;;;7.40;69.50;;;;;;5027263;28;20038;-78
2022/03/24 03:39:46;;;;;;;11.45;7.22;;;7.50;68.50;;;;;;5030706;28;20553;-78
2022/03/24 03:42:16;;;;;;;15.70;7.18;;;7.60;68.40;;;;;;5031253;28;20040;-78
2022/03/24 03:44:42;;;;;;;16.90;8.48;;;7.60;68.80;;;;;;5029850;28;20063;-78
2022/03/24 03:47:11;;;;;;;21.42;8.18;;;7.60;69.10;;;;;;5033212;28;20037;-78
2022/03/24 03:50:08;;;;;;;9.77;7.68;;;7.60;68.20;;;;;;5032185;28;20033;-77
2022/03/24 03:52:56;;;;;;;;;;;;;;;;;;;;;
2022/03/24 03:55:28;;;;;;;14.52;7.53;;;7.70;66.90;;;;;;5028688;28;20049;-78
2022/03/24 03:58:03;;;;;;;13.57;8.40;;;7.70;67.10;;;;;;5032421;28;20091;-78
2022/03/24 04:03:57;;;;;;;16.25;7.95;;;7.70;66.00;;;;;;5027094;28;20036;-78
2022/03/24 04:06:45;;;;;;;14.18;7.75;;;7.70;66.10;;;;;;5028705;28;20383;-79
2022/03/24 04:09:21;;;;;;;13.48;7.97;;;7.60;66.50;;;;;;5027467;28;20573;-78
2022/03/24 04:11:50;;;;;;;11.90;8.15;;;7.60;67.10;;;;;;5032372;28;20025;-78
2022/03/24 04:14:27;;;;;;;12.75;8.32;;;7.50;67.40;;;;;;5021080;28;20381;-78
2022/03/24 04:16:57;;;;;;;16.58;7.60;;;7.50;68.10;;;;;;5032290;28;20045;-78
2022/03/24 04:19:25;;;;;;;15.85;7.65;;;7.50;68.10;;;;;;5031005;28;20033;-78
2022/03/24 04:22:21;;;;;;;11.25;7.28;;;7.50;68.40;;;;;;5032609;28;20108;-78
2022/03/24 04:25:02;;;;;;;10.65;7.63;;;7.40;68.50;;;;;;5030924;28;20075;-78
2022/03/24 04:27:44;;;;;;;13.43;7.28;;;7.40;68.60;;;;;;5019633;28;20053;-78
2022/03/24 04:30:47;;;;;;;11.82;8.10;;;7.40;68.10;;;;;;5031123;28;20043;-78
2022/03/24 04:36:16;;;;;;;14.25;7.97;;;7.60;67.50;;;;;;5026424;28;20099;-78
2022/03/24 04:38:49;;;;;;;9.50;7.15;;;7.60;67.20;;;;;;5032097;28;20052;-78
2022/03/24 04:41:15;;;;;;;10.98;7.55;;;7.60;66.80;;;;;;5031905;28;20116;-78
2022/03/24 04:43:44;;;;;;;17.58;8.40;;;7.60;66.00;;;;;;5031937;28;20025;-78
2022/03/24 04:46:16;;;;;;;13.82;7.85;;;7.70;65.60;;;;;;5030650;28;20036;-78
2022/03/24 04:48:57;;;;;;;14.98;7.93;;;7.80;65.10;;;;;;5031810;28;20025;-78
2022/03/24 04:51:29;;;;;;;14.60;8.60;;;7.80;64.10;;;;;;5031643;28;20088;-78
2022/03/24 04:53:57;;;;;;;16.27;8.07;;;7.90;63.90;;;;;;5031778;28;20026;-78
2022/03/24 04:56:23;;;;;;;10.07;7.55;;;7.90;63.70;;;;;;5030372;28;20395;-78
2022/03/24 04:58:49;;;;;;;15.20;7.82;;;8.00;64.20;;;;;;5031540;28;20048;-78
2022/03/24 05:01:29;;;;;;;11.75;7.60;;;7.90;64.90;;;;;;5021719;28;20030;-78
2022/03/24 05:03:55;;;;;;;13.82;8.13;;;7.90;65.90;;;;;;5029704;28;20029;-79
2022/03/24 05:06:27;;;;;;;11.23;8.00;;;7.80;64.70;;;;;;5031190;28;20017;-79
2022/03/24 05:08:56;;;;;;;10.88;7.90;;;7.70;65.20;;;;;;5031580;28;20029;-79
2022/03/24 05:11:22;;;;;;;14.52;8.20;;;7.70;64.70;;;;;;5031222;28;20148;-78
2022/03/24 05:13:48;;;;;;;13.90;8.20;;;7.70;64.80;;;;;;5023540;28;20034;-78
2022/03/24 05:16:23;;;;;;;12.15;7.80;;;7.60;65.20;;;;;;5025858;28;20500;-79
2022/03/24 05:18:49;;;;;;;10.85;7.75;;;7.60;65.40;;;;;;5030054;28;20037;-78
2022/03/24 05:21:35;;;;;;;15.25;7.90;;;7.50;65.80;;;;;;5031179;28;20029;-78
2022/03/24 05:24:02;;;;;;;24.90;8.45;;;7.50;66.70;;;;;;5025538;28;20033;-79
2022/03/24 05:26:28;;;;;;;11.93;8.10;;;7.50;67.30;;;;;;5029886;28;20037;-78
2022/03/24 05:28:54;;;;;;;13.32;7.93;;;7.60;67.10;;;;;;5030993;28;20021;-78
2022/03/24 05:31:26;;;;;;;17.02;8.82;;;7.60;67.10;;;;;;5031094;28;20035;-78
2022/03/24 05:33:59;;;;;;;13.27;7.60;;;7.70;65.80;;;;;;5030928;28;20025;-79
2022/03/24 05:36:25;;;;;;;15.38;7.80;;;7.80;66.30;;;;;;5030893;28;20503;-78
2022/03/24 05:38:51;;;;;;;11.57;8.43;;;7.90;66.10;;;;;;5031103;28;20025;-78
2022/03/24 05:41:18;;;;;;;15.88;7.70;;;7.90;66.70;;;;;;5028824;28;20029;-78
2022/03/24 05:44:02;;;;;;;14.30;7.97;;;8.00;67.50;;;;;;5025977;28;20041;-78
2022/03/24 05:46:40;;;;;;;13.00;7.78;;;8.10;66.00;;;;;;5029554;28;20033;-78
2022/03/24 05:49:07;;;;;;;11.38;7.70;;;8.20;66.60;;;;;;5030309;28;20537;-78
2022/03/24 05:51:33;;;;;;;15.52;7.57;;;8.30;64.30;;;;;;5031311;28;20464;-78
2022/03/24 05:53:59;;;;;;;13.13;7.93;;;8.40;65.60;;;;;;5030584;28;20033;-78
2022/03/24 05:56:26;;;;;;;20.25;8.25;;;8.40;65.50;;;;;;5030576;28;20552;-78
2022/03/24 05:58:52;;;;;;;15.25;8.98;;;8.50;64.90;;;;;;5030836;28;20044;-78
2022/03/24 06:01:20;;;;;;;16.55;8.35;;;8.60;65.00;;;;;;5028958;28;20516;-77
2022/03/24 06:03:51;;;;;;;14.20;8.13;;;8.70;64.80;;;;;;5030726;28;20419;-79
2022/03/24 06:06:17;;;;;;;12.43;8.10;;;8.80;66.30;;;;;;5030649;28;20174;-78
2022/03/24 06:08:52;;;;;;;16.08;8.57;;;8.90;65.30;;;;;;5030417;28;20040;-82
2022/03/24 06:11:19;;;;;;;12.27;8.38;;;9.00;63.10;;;;;;5030906;28;20549;-78
2022/03/24 06:13:46;;;;;;;14.68;8.88;;;9.30;63.10;;;;;;5030477;28;20040;-78
2022/03/24 06:16:17;;;;;;;15.48;8.68;;;9.40;63.00;;;;;;5030207;28;20045;-78
2022/03/24 06:18:51;;;;;;;13.50;8.55;;;9.60;63.20;;;;;;5030621;28;20083;-78
2022/03/24 06:21:16;;;;;;;12.93;8.00;;;9.70;62.70;;;;;;5029393;28;20038;-77
2022/03/24 06:23:42;;;;;;;12.68;8.20;;;9.80;61.50;;;;;;5030149;28;20088;-78
2022/03/24 06:26:12;;;;;;;12.57;7.68;;;9.90;61.50;;;;;;5030539;28;20461;-78
2022/03/24 06:28:38;;;;;;;12.57;8.32;;;10.00;61.10;;;;;;5030619;28;20279;-77
2022/03/24 06:31:05;;;;;;;13.88;7.78;;;10.20;60.30;;;;;;5030424;28;20037;-78
2022/03/24 06:33:30;;;;;;;16.27;8.07;;;10.40;60.30;;;;;;5030397;28;20433;-78
2022/03/24 06:35:56;;;;;;;10.57;7.88;;;10.50;59.50;;;;;;5030199;28;20132;-77
2022/03/24 06:38:23;;;;;;;12.35;7.85;;;10.60;60.00;;;;;;5030171;28;20060;-78
2022/03/24 06:40:49;;;;;;;25.90;9.88;;;10.80;58.90;;;;;;5025313;28;20029;-77
2022/03/24 06:43:17;;;;;;;27.77;10.18;;;10.80;62.20;;;;;;5030102;28;20075;-81
2022/03/24 06:45:43;;;;;;;17.77;9.75;;;10.90;61.10;;;;;;5030261;28;20033;-78
2022/03/24 06:48:09;;;;;;;20.38;9.57;;;10.90;59.80;;;;;;5030480;28;20033;-78
2022/03/24 06:50:36;;;;;;;14.82;9.57;;;10.90;59.50;;;;;;5030172;28;20057;-79
2022/03/24 06:53:05;;;;;;;21.33;10.80;;;10.90;61.00;;;;;;5030166;28;20435;-77
2022/03/24 06:55:31;;;;;;;22.38;12.15;;;11.00;63.00;;;;;;5030133;28;20049;-84
2022/03/24 06:58:00;;;;;;;22.90;11.98;;;11.10;66.50;;;;;;5030126;28;20765;-77
2022/03/24 07:00:26;;;;;;;15.85;11.50;;;11.10;68.20;;;;;;5030220;28;20112;-76
2022/03/24 07:02:54;;;;;;;20.85;11.32;;;11.10;68.00;;;;;;5030276;28;20658;-77
2022/03/24 07:05:20;;;;;;;23.35;12.20;;;11.20;67.60;;;;;;5030063;28;20036;-77
2022/03/24 07:07:46;;;;;;;21.42;12.27;;;11.30;67.40;;;;;;5030089;28;20025;-77
2022/03/24 07:10:12;;;;;;;24.33;12.48;;;11.30;68.90;;;;;;5029464;28;20044;-77
2022/03/24 07:12:38;;;;;;;24.88;12.73;;;11.40;69.50;;;;;;5028752;28;20025;-77
2022/03/24 07:15:07;;;;;;;23.95;13.07;;;11.60;71.50;;;;;;5027990;28;20493;-78
2022/03/24 07:17:34;;;;;;;26.10;14.82;;;11.70;72.40;;;;;;5019828;28;20030;-78
2022/03/24 07:20:03;;;;;;;19.13;12.93;;;11.70;71.60;;;;;;5023887;28;20026;-77
2022/03/24 07:22:36;;;;;;;25.63;13.90;;;11.80;73.80;;;;;;5029352;28;20112;-76
2022/03/24 07:25:15;;;;;;;;;;;;;;;;;;;;;
2022/03/24 07:27:42;;;;;;;25.25;15.30;;;11.80;79.40;;;;;;5015796;28;20021;-76
2022/03/24 07:30:10;;;;;;;28.80;15.15;;;11.80;82.00;;;;;;5025612;28;20477;-76
2022/03/24 07:32:36;;;;;;;26.35;14.30;;;11.90;86.40;;;;;;5032184;28;20029;-76
2022/03/24 07:35:04;;;;;;;24.90;14.55;;;11.80;85.70;;;;;;5031420;28;20488;-76
2022/03/24 07:37:31;;;;;;;24.85;13.23;;;11.80;85.00;;;;;;5031837;28;20026;-76
2022/03/24 07:39:57;;;;;;;22.83;12.70;;;12.00;87.40;;;;;;5028198;28;20026;-76
2022/03/24 07:42:23;;;;;;;29.73;13.63;;;12.00;88.70;;;;;;5030038;28;20061;-76
2022/03/24 07:44:49;;;;;;;23.85;13.00;;;12.10;84.00;;;;;;5031663;28;20056;-76
2022/03/24 07:47:15;;;;;;;22.40;12.98;;;12.20;87.00;;;;;;5032763;28;20112;-76
2022/03/24 07:49:41;;;;;;;26.95;13.77;;;12.30;84.70;;;;;;5032132;28;20440;-76
2022/03/24 07:52:16;;;;;;;24.65;14.20;;;12.40;83.30;;;;;;5032443;28;20052;-76
2022/03/24 07:54:48;;;;;;;24.15;13.82;;;12.50;83.50;;;;;;5032015;28;20050;-76
2022/03/24 07:57:14;;;;;;;;;;;12.70;91.00;;;;;;5033683;28;20095;-76
2022/03/24 07:59:40;;;;;;;23.30;12.43;;;12.70;97.50;;;;;;5030555;28;19909;-76
2022/03/24 08:02:07;;;;;;;21.00;12.77;;;12.60;99.90;;;;;;5033093;28;20021;-76
2022/03/24 08:04:34;;;;;;;19.23;12.27;;;12.40;99.90;;;;;;5032101;28;20476;-76
2022/03/24 08:06:59;;;;;;;22.58;13.07;;;12.30;99.90;;;;;;5028907;28;20645;-76
2022/03/24 08:09:25;;;;;;;25.67;12.70;;;12.30;99.90;;;;;;5032120;28;20021;-76
2022/03/24 08:11:51;;;;;;;16.30;11.80;;;12.40;99.90;;;;;;5033005;28;20022;-76
2022/03/24 08:14:17;;;;;;;23.30;12.85;;;12.40;99.90;;;;;;5030632;28;20056;-76
2022/03/24 08:16:45;;;;;;;20.35;12.40;;;12.60;99.90;;;;;;5031401;28;20061;-77
2022/03/24 08:19:19;;;;;;;16.35;11.73;;;12.70;99.90;;;;;;5031826;28;20361;-76
2022/03/24 08:21:44;;;;;;;21.55;12.77;;;12.80;99.90;;;;;;5031621;28;20288;-76
2022/03/24 08:24:10;;;;;;;18.92;13.02;;;12.90;99.90;;;;;;5031239;28;20141;-77
2022/03/24 08:26:37;;;;;;;20.95;11.63;;;13.00;99.90;;;;;;5032580;28;20044;-77
2022/03/24 08:29:04;;;;;;;19.90;11.20;;;13.20;99.90;;;;;;5022313;28;20108;-77
2022/03/24 08:31:30;;;;;;;24.48;10.32;;;13.30;99.90;;;;;;5030822;28;20388;-76
2022/03/24 08:33:56;;;;;;;22.92;11.57;;;13.30;99.60;;;;;;5032001;28;20039;-76
2022/03/24 08:36:23;;;;;;;15.52;10.40;;;13.50;94.60;;;;;;5031677;28;20068;-76
2022/03/24 08:38:52;;;;;;;17.10;10.07;;;13.50;92.20;;;;;;5032057;28;20113;-76
2022/03/24 08:41:20;;;;;;;23.30;10.00;;;13.50;90.00;;;;;;5032047;28;20061;-76
2022/03/24 08:43:46;;;;;;;22.13;10.10;;;13.60;86.80;;;;;;5031785;28;20559;-76
2022/03/24 08:46:13;;;;;;;15.65;9.77;;;13.60;80.70;;;;;;5024302;28;20124;-76
2022/03/24 08:48:38;;;;;;;15.20;9.18;;;13.70;80.00;;;;;;5031600;28;20022;-76
2022/03/24 08:51:06;;;;;;;19.90;10.60;;;13.80;80.90;;;;;;5031561;28;20040;-76
2022/03/24 08:53:31;;;;;;;17.60;9.55;;;13.80;81.40;;;;;;5031495;28;20032;-76
2022/03/24 08:56:03;;;;;;;17.40;9.63;;;14.00;87.70;;;;;;5029935;28;20061;-76
2022/03/24 08:58:29;;;;;;;20.30;9.20;;;13.90;99.90;;;;;;5030220;28;20590;-77
2022/03/24 09:00:55;;;;;;;14.48;9.65;;;13.70;99.90;;;;;;5031192;28;20053;-76
2022/03/24 09:03:31;;;;;;;23.27;10.55;;;13.50;99.90;;;;;;5031179;28;20048;-76
2022/03/24 09:05:56;;;;;;;16.60;10.00;;;13.50;99.00;;;;;;5027133;28;20033;-76
2022/03/24 09:08:22;;;;;;;18.38;10.07;;;13.60;99.60;;;;;;5031437;28;20044;-76
2022/03/24 09:10:50;;;;;;;12.57;9.35;;;13.70;99.90;;;;;;5025952;28;20040;-76
2022/03/24 09:13:17;;;;;;;20.70;10.63;;;13.60;99.90;;;;;;5031286;28;20060;-76
2022/03/24 09:15:45;;;;;;;18.05;9.70;;;13.80;99.90;;;;;;5031042;28;20091;-76
2022/03/24 09:18:11;;;;;;;26.67;10.52;;;13.80;99.70;;;;;;5031217;28;20120;-76
2022/03/24 09:20:37;;;;;;;16.55;9.98;;;14.00;98.10;;;;;;5031121;28;20442;-76
2022/03/24 09:23:03;;;;;;;19.48;10.00;;;14.20;94.00;;;;;;5031284;28;20441;-76
2022/03/24 09:25:33;;;;;;;15.80;9.48;;;14.30;88.70;;;;;;5030926;28;20060;-77
2022/03/24 09:27:59;;;;;;;17.67;9.40;;;14.40;82.90;;;;;;5031161;28;20512;-76
2022/03/24 09:30:24;;;;;;;14.63;9.13;;;14.50;80.60;;;;;;5031244;28;20041;-76
2022/03/24 09:32:52;;;;;;;19.23;9.75;;;14.60;78.60;;;;;;5029921;28;20428;-76
2022/03/24 09:35:18;;;;;;;11.85;8.00;;;14.70;75.10;;;;;;5025021;28;20052;-77
2022/03/24 09:37:47;;;;;;;16.13;9.40;;;14.80;74.40;;;;;;5029324;28;20399;-76
2022/03/24 09:40:17;;;;;;;15.43;9.25;;;15.00;75.60;;;;;;5029066;28;20040;-76
2022/03/24 09:42:46;;;;;;;17.48;8.88;;;15.00;85.80;;;;;;5028935;28;20029;-76
2022/03/24 09:45:13;;;;;;;18.27;9.13;;;14.90;86.70;;;;;;5028820;28;20480;-76
2022/03/24 09:47:40;;;;;;;16.33;7.90;;;15.10;78.60;;;;;;5027440;28;20041;-77
2022/03/24 09:50:08;;;;;;;14.88;7.68;;;15.20;72.50;;;;;;5028538;28;20500;-77
2022/03/24 09:52:38;;;;;;;13.38;7.63;;;15.20;64.80;;;;;;5028496;28;20033;-76
2022/03/24 09:55:04;;;;;;;11.23;7.82;;;15.30;66.50;;;;;;5025489;28;20052;-76
2022/03/24 09:57:30;;;;;;;14.43;7.47;;;15.50;69.40;;;;;;5028679;28;20063;-77
2022/03/24 09:59:56;;;;;;;17.77;8.40;;;15.60;62.70;;;;;;5029100;28;20076;-76
2022/03/24 10:02:22;;;;;;;16.27;7.40;;;15.60;63.50;;;;;;5030475;28;20098;-76
2022/03/24 10:04:54;;;;;;;13.18;7.47;;;15.60;63.70;;;;;;5030207;28;20143;-76
2022/03/24 10:07:29;;;;;;;12.70;7.22;;;15.70;59.40;;;;;;5029168;28;20017;-77
2022/03/24 10:10:01;;;;;;;15.55;7.10;;;15.80;56.10;;;;;;5027335;28;20027;-76
2022/03/24 10:12:34;;;;;;;10.57;7.43;;;15.90;58.20;;;;;;5030337;28;20022;-77
2022/03/24 10:15:11;;;;;;;14.52;7.88;;;16.00;56.00;;;;;;5030020;28;20060;-77
2022/03/24 10:17:39;;;;;;;12.63;7.40;;;16.00;57.40;;;;;;5021945;28;20164;-76
2022/03/24 10:20:15;;;;;;;9.43;6.90;;;16.00;58.30;;;;;;5028238;28;20116;-76
2022/03/24 10:22:55;;;;;;;10.85;7.22;;;16.00;56.00;;;;;;5022880;28;20034;-76
2022/03/24 10:25:36;;;;;;;15.15;7.63;;;16.00;55.00;;;;;;5026532;28;20037;-76
2022/03/24 10:28:10;;;;;;;15.15;7.80;;;16.00;60.80;;;;;;5026162;28;20022;-76
2022/03/24 10:30:59;;;;;;;23.80;8.85;;;16.20;59.40;;;;;;5023612;28;20045;-76
2022/03/24 10:33:39;;;;;;;13.30;8.23;;;16.00;59.60;;;;;;5030160;28;20377;-76
2022/03/24 10:36:13;;;;;;;14.00;8.50;;;16.10;58.00;;;;;;5029741;28;20380;-76
2022/03/24 10:38:42;;;;;;;15.63;10.00;;;16.10;59.20;;;;;;5021491;28;20021;-84
2022/03/24 10:41:20;;;;;;;11.70;8.43;;;16.10;60.20;;;;;;5022542;28;20029;-83
2022/03/24 10:43:49;;;;;;;15.85;8.73;;;16.20;60.60;;;;;;5022397;28;20029;-77
2022/03/24 10:46:24;;;;;;;11.65;8.40;;;16.30;59.20;;;;;;5030062;28;20026;-82
2022/03/24 10:48:51;;;;;;;13.82;9.10;;;16.20;60.10;;;;;;5029184;28;20041;-77
2022/03/24 10:51:23;;;;;;;13.73;8.00;;;16.20;62.40;;;;;;5029715;28;20435;-78
2022/03/24 10:53:51;;;;;;;12.43;9.73;;;16.30;61.60;;;;;;5030759;28;20535;-80
2022/03/24 10:56:33;;;;;;;10.57;8.52;;;16.30;63.20;;;;;;5033336;28;20054;-80
2022/03/24 10:59:05;;;;;;;13.63;7.43;;;16.30;61.10;;;;;;5033848;28;20112;-84
2022/03/24 11:01:36;;;;;;;13.63;8.55;;;16.30;61.30;;;;;;5032127;28;20598;-80
2022/03/24 11:04:02;;;;;;;15.68;8.18;;;16.40;60.80;;;;;;5033747;28;20040;-79
2022/03/24 11:06:28;;;;;;;12.85;8.45;;;16.50;58.80;;;;;;5033827;28;20030;-79
2022/03/24 11:09:20;;;;;;;13.15;8.15;;;16.40;61.40;;;;;;5032356;28;20034;-78
2022/03/24 11:11:45;;;;;;;12.70;8.38;;;16.40;59.30;;;;;;5031751;28;20112;-79
2022/03/24 11:14:15;;;;;;;24.05;8.65;;;16.30;59.70;;;;;;5031617;28;20125;-79
2022/03/24 11:16:41;;;;;;;9.73;7.05;;;16.30;58.10;;;;;;5033629;28;20026;-79
2022/03/24 11:19:15;;;;;;;11.98;7.93;;;16.20;57.90;;;;;;5031500;28;20476;-79
2022/03/24 11:21:51;;;;;;;14.45;8.50;;;16.20;58.30;;;;;;5033702;28;20075;-79
2022/03/24 11:24:17;;;;;;;13.95;8.40;;;16.30;59.40;;;;;;5032583;28;20025;-79
2022/03/24 11:26:56;;;;;;;20.85;9.82;;;16.30;60.00;;;;;;5033681;28;20040;-79
2022/03/24 11:29:30;;;;;;;15.48;10.20;;;16.40;57.20;;;;;;5032587;28;20029;-79
2022/03/24 11:31:58;;;;;;;16.23;9.45;;;16.40;57.40;;;;;;5032547;28;20502;-79
2022/03/24 11:34:25;;;;;;;11.35;8.63;;;16.40;59.20;;;;;;5032852;28;20108;-79
2022/03/24 11:36:51;;;;;;;13.45;8.65;;;16.40;56.20;;;;;;5033311;28;20108;-78
2022/03/24 11:39:36;;;;;;;15.55;9.00;;;16.30;56.60;;;;;;5032177;28;20067;-78
2022/03/24 11:42:03;;;;;;;15.60;9.10;;;16.20;58.90;;;;;;5028427;28;20053;-79
2022/03/24 11:44:52;;;;;;;13.02;8.25;;;16.30;58.30;;;;;;5032405;28;20025;-79
2022/03/24 11:47:22;;;;;;;13.15;7.88;;;16.30;56.90;;;;;;5030288;28;20022;-79
2022/03/24 11:50:09;;;;;;;14.02;8.93;;;16.40;52.00;;;;;;5032429;28;20021;-79
2022/03/24 11:52:35;;;;;;;12.40;8.50;;;16.30;54.10;;;;;;5024544;28;20022;-78
2022/03/24 11:55:04;;;;;;;12.02;8.23;;;16.30;53.20;;;;;;5030411;28;20045;-78
2022/03/24 11:57:32;;;;;;;13.15;8.55;;;16.20;52.30;;;;;;5031461;28;20033;-79
2022/03/24 12:00:13;;;;;;;17.38;9.10;;;16.20;56.70;;;;;;5032671;28;20067;-79
2022/03/24 12:02:40;;;;;;;14.55;9.00;;;16.30;54.50;;;;;;5025097;28;20048;-78
2022/03/24 12:05:06;;;;;;;13.48;8.88;;;16.30;53.60;;;;;;5032213;28;20026;-79
2022/03/24 12:07:32;;;;;;;12.95;8.57;;;16.40;55.50;;;;;;5032475;28;20116;-79
2022/03/24 12:10:03;;;;;;;12.10;8.02;;;16.60;53.10;;;;;;5032446;28;20029;-79
2022/03/24 12:12:29;;;;;;;11.98;8.65;;;16.60;51.80;;;;;;5031398;28;20033;-79
2022/03/24 12:14:58;;;;;;;16.95;8.80;;;16.80;54.30;;;;;;5032104;28;20030;-79
2022/03/24 12:17:31;;;;;;;15.55;9.10;;;17.20;53.60;;;;;;5032388;28;20480;-79
2022/03/24 12:20:03;;;;;;;20.52;9.02;;;19.00;53.20;;;;;;5031655;28;20029;-79
2022/03/24 12:22:32;;;;;;;11.82;8.63;;;22.70;46.60;;;;;;5030810;28;20030;-79
2022/03/24 12:25:00;;;;;;;11.95;8.40;;;24.90;44.40;;;;;;5031983;28;20479;-79
2022/03/24 12:27:27;;;;;;;15.43;8.82;;;25.70;42.50;;;;;;5032373;28;20124;-79
2022/03/24 12:30:12;;;;;;;14.00;8.40;;;25.80;44.50;;;;;;5030971;28;20033;-79
2022/03/24 12:32:39;;;;;;;12.10;7.85;;;26.60;44.60;;;;;;5024270;28;20029;-79
2022/03/24 12:35:08;;;;;;;15.32;7.82;;;27.10;42.40;;;;;;5031709;28;20033;-79
2022/03/24 12:37:34;;;;;;;13.18;7.95;;;27.10;41.00;;;;;;5022671;28;20396;-79
2022/03/24 12:40:11;;;;;;;11.68;7.68;;;26.50;41.70;;;;;;5031907;28;20026;-80
2022/03/24 12:42:47;;;;;;;13.48;7.80;;;26.30;39.10;;;;;;5022773;28;20021;-79
2022/03/24 12:45:31;;;;;;;13.40;7.07;;;26.00;40.40;;;;;;5031580;28;20033;-79
2022/03/24 12:48:07;;;;;;;21.63;8.68;;;25.60;39.10;;;;;;5031810;28;20029;-79
2022/03/24 12:50:41;;;;;;;20.20;9.05;;;25.90;41.80;;;;;;5031555;28;20029;-79
2022/03/24 12:53:08;;;;;;;15.32;9.40;;;26.40;41.10;;;;;;5031621;28;20041;-79
2022/03/24 12:55:40;;;;;;;15.55;9.30;;;27.00;41.40;;;;;;5023889;28;20099;-79
2022/03/24 12:58:10;;;;;;;16.02;9.63;;;27.60;42.20;;;;;;5020676;28;20029;-79
2022/03/24 13:00:42;;;;;;;11.95;9.57;;;28.10;43.80;;;;;;5031196;28;20484;-79
2022/03/24 13:03:09;;;;;;;15.73;10.05;;;28.60;43.80;;;;;;5027522;28;20037;-79
2022/03/24 13:05:37;;;;;;;19.40;10.63;;;29.00;45.50;;;;;;5031321;28;20392;-79
2022/03/24 13:08:09;;;;;;;11.75;9.35;;;28.50;47.50;;;;;;5030267;28;20033;-80
2022/03/24 13:10:36;;;;;;;19.15;11.48;;;30.00;44.60;;;;;;5031167;28;20030;-80
2022/03/24 13:13:05;;;;;;;19.67;11.02;;;31.20;46.40;;;;;;5031193;28;20030;-80
2022/03/24 13:15:37;;;;;;;20.83;11.27;;;31.00;46.50;;;;;;5030813;28;20120;-80
2022/03/24 13:18:05;;;;;;;18.35;11.93;;;30.70;45.50;;;;;;5027630;28;20053;-80
2022/03/24 13:20:41;;;;;;;15.75;10.95;;;29.60;46.00;;;;;;5030779;28;20025;-80